createdAt,value
2019-06-10T00:00:55.223Z,14.07
2019-06-10T00:03:24.529Z,13.77
2019-06-10T00:05:54.010Z,13.50
2019-06-10T00:08:23.282Z,14.53
2019-06-10T00:10:52.494Z,15.70
2019-06-10T00:13:22.044Z,15.03
2019-06-10T00:15:51.642Z,13.43
2019-06-10T00:18:35.380Z,18.57
2019-06-10T00:20:52.234Z,13.77
2019-06-10T00:23:21.489Z,15.50
2019-06-10T00:25:51.572Z,14.70
2019-06-10T00:28:21.735Z,14.77
2019-06-10T00:30:51.616Z,13.90
2019-06-10T00:33:21.616Z,16.73
2019-06-10T00:35:51.581Z,13.80
2019-06-10T00:38:21.398Z,13.27
2019-06-10T00:40:51.294Z,13.90
2019-06-10T00:43:21.488Z,13.03
2019-06-10T00:45:51.387Z,15.07
2019-06-10T00:48:28.840Z,13.60
2019-06-10T00:50:52.837Z,12.43
2019-06-10T00:53:22.164Z,12.93
2019-06-10T00:55:51.719Z,11.37
2019-06-10T00:58:21.694Z,12.77
2019-06-10T01:00:51.839Z,18.33
2019-06-10T01:03:21.155Z,16.20
2019-06-10T01:05:50.995Z,18.27
2019-06-10T01:08:21.441Z,19.10
2019-06-10T01:10:52.244Z,16.53
2019-06-10T01:13:21.932Z,19.30
2019-06-10T01:15:51.290Z,23.60
2019-06-10T01:18:34.877Z,21.73
2019-06-10T01:20:51.890Z,21.53
2019-06-10T01:23:21.876Z,20.60
2019-06-10T01:25:51.254Z,18.67
2019-06-10T01:28:21.993Z,20.83
2019-06-10T01:30:51.837Z,23.10
2019-06-10T01:33:21.496Z,23.30
2019-06-10T01:35:51.495Z,17.63
2019-06-10T01:38:21.330Z,15.60
2019-06-10T01:40:51.074Z,17.80
2019-06-10T01:43:21.405Z,17.07
2019-06-10T01:45:51.222Z,19.37
2019-06-10T01:48:21.035Z,19.70
2019-06-10T01:50:51.415Z,51.07
2019-06-10T01:53:22.093Z,17.53
2019-06-10T01:55:51.948Z,17.67
2019-06-10T01:58:23.687Z,18.07
2019-06-10T02:01:02.463Z,26.80
2019-06-10T02:03:31.931Z,30.13
2019-06-10T02:06:01.588Z,33.30
2019-06-10T02:08:31.577Z,30.93
2019-06-10T02:11:01.373Z,30.90
2019-06-10T02:13:32.510Z,31.67
2019-06-10T02:16:02.818Z,24.97
2019-06-10T02:18:32.406Z,22.97
2019-06-10T02:21:01.828Z,27.33
2019-06-10T02:23:31.748Z,21.07
2019-06-10T02:26:02.010Z,19.23
2019-06-10T02:28:32.072Z,20.93
2019-06-10T02:31:03.054Z,20.43
2019-06-10T02:33:36.580Z,23.47
2019-06-10T02:36:04.593Z,20.33
2019-06-10T02:38:39.409Z,21.57
2019-06-10T02:41:06.380Z,21.27
2019-06-10T02:43:37.816Z,18.77
2019-06-10T02:46:07.332Z,15.83
2019-06-10T02:48:36.596Z,20.57
2019-06-10T02:51:07.862Z,21.00
2019-06-10T02:53:37.791Z,15.67
2019-06-10T02:56:08.309Z,18.47
2019-06-10T02:58:39.825Z,17.77
2019-06-10T03:01:09.123Z,22.23
2019-06-10T03:03:44.293Z,20.03
2019-06-10T03:06:09.456Z,21.80
2019-06-10T03:08:39.546Z,24.20
2019-06-10T03:11:09.012Z,20.97
2019-06-10T03:13:38.310Z,19.57
2019-06-10T03:16:25.392Z,20.40
2019-06-10T03:18:53.354Z,20.17
2019-06-10T03:21:24.613Z,19.40
2019-06-10T03:23:53.677Z,16.67
2019-06-10T03:26:24.355Z,17.50
2019-06-10T03:28:53.984Z,19.63
2019-06-10T03:31:30.896Z,18.30
2019-06-10T03:33:54.761Z,18.33
2019-06-10T03:36:25.754Z,14.53
2019-06-10T03:38:55.112Z,14.23
2019-06-10T03:41:26.190Z,13.60
2019-06-10T03:43:55.304Z,16.20
2019-06-10T03:46:26.892Z,15.80
2019-06-10T03:48:55.729Z,20.23
2019-06-10T03:51:27.420Z,19.97
2019-06-10T03:53:56.502Z,14.23
2019-06-10T03:56:26.964Z,16.30
2019-06-10T03:58:56.759Z,19.80
2019-06-10T04:01:28.669Z,17.20
2019-06-10T04:03:57.300Z,19.70
2019-06-10T04:06:27.707Z,18.57
2019-06-10T04:08:58.358Z,22.80
2019-06-10T04:11:28.780Z,17.43
2019-06-10T04:13:58.775Z,21.87
2019-06-10T04:16:28.366Z,16.50
2019-06-10T04:18:57.580Z,19.63
2019-06-10T04:21:28.097Z,16.73
2019-06-10T04:23:58.061Z,18.00
2019-06-10T04:26:28.516Z,21.07
2019-06-10T04:28:58.480Z,22.37
2019-06-10T04:31:28.046Z,19.40
2019-06-10T04:33:57.270Z,17.27
2019-06-10T04:36:27.840Z,19.07
2019-06-10T04:38:58.630Z,17.00
2019-06-10T04:41:29.154Z,18.90
2019-06-10T04:43:58.497Z,17.93
2019-06-10T04:46:29.536Z,19.50
2019-06-10T04:48:58.783Z,19.40
2019-06-10T04:51:29.781Z,22.60
2019-06-10T04:54:02.761Z,20.30
2019-06-10T04:56:33.289Z,22.20
2019-06-10T04:59:03.155Z,21.00
2019-06-10T05:01:33.505Z,28.20
2019-06-10T05:04:03.345Z,22.07
2019-06-10T05:06:32.982Z,22.97
2019-06-10T05:09:04.203Z,26.53
2019-06-10T05:11:33.513Z,22.23
2019-06-10T05:14:02.974Z,28.23
2019-06-10T05:16:35.763Z,25.93
2019-06-10T05:19:03.923Z,23.80
2019-06-10T05:21:33.833Z,20.93
2019-06-10T05:24:04.165Z,23.43
2019-06-10T05:26:33.801Z,19.47
2019-06-10T05:29:03.327Z,21.13
2019-06-10T05:31:34.980Z,22.90
2019-06-10T05:34:03.777Z,19.50
2019-06-10T05:36:34.764Z,20.93
2019-06-10T05:39:05.812Z,20.50
2019-06-10T05:41:35.352Z,25.47
2019-06-10T05:44:04.657Z,21.40
2019-06-10T05:46:35.047Z,21.53
2019-06-10T05:49:04.474Z,19.77
2019-06-10T05:51:35.402Z,20.47
2019-06-10T05:54:05.799Z,17.87
2019-06-10T05:56:35.721Z,25.30
2019-06-10T05:59:04.957Z,21.63
2019-06-10T06:01:37.941Z,18.30
2019-06-10T06:04:05.517Z,17.93
2019-06-10T06:06:35.476Z,15.80
2019-06-10T06:09:06.964Z,16.77
2019-06-10T06:11:37.681Z,11.20
2019-06-10T06:14:07.060Z,11.73
2019-06-10T06:16:36.563Z,8.00
2019-06-10T06:19:05.871Z,6.87
2019-06-10T06:21:42.077Z,8.13
2019-06-10T06:24:06.545Z,6.57
2019-06-10T06:26:38.077Z,9.10
2019-06-10T06:29:06.778Z,7.23
2019-06-10T06:31:37.715Z,9.20
2019-06-10T06:34:07.007Z,8.13
2019-06-10T06:36:37.917Z,9.10
2019-06-10T06:39:08.920Z,6.27
2019-06-10T06:41:39.134Z,8.33
2019-06-10T06:44:08.625Z,8.60
2019-06-10T06:46:39.643Z,13.43
2019-06-10T06:49:09.081Z,6.93
2019-06-10T06:51:51.815Z,9.93
2019-06-10T06:54:09.791Z,8.00
2019-06-10T06:56:40.578Z,11.27
2019-06-10T06:59:12.963Z,7.03
2019-06-10T07:01:44.205Z,7.00
2019-06-10T07:04:13.213Z,8.30
2019-06-10T07:06:43.545Z,10.43
2019-06-10T07:09:13.449Z,9.20
2019-06-10T07:11:45.263Z,9.57
2019-06-10T07:14:14.772Z,8.03
2019-06-10T07:16:46.314Z,12.73
2019-06-10T07:19:15.110Z,8.40
2019-06-10T07:22:02.357Z,10.43
2019-06-10T07:24:15.741Z,7.30
2019-06-10T07:26:51.036Z,8.93
2019-06-10T07:29:16.040Z,5.27
2019-06-10T07:31:49.328Z,6.70
2019-06-10T07:34:16.254Z,5.97
2019-06-10T07:36:45.632Z,9.13
2019-06-10T07:39:15.318Z,11.33
2019-06-10T07:41:47.815Z,10.83
2019-06-10T07:44:15.641Z,5.77
2019-06-10T07:46:45.683Z,6.83
2019-06-10T07:49:15.029Z,9.17
2019-06-10T07:51:46.462Z,12.60
2019-06-10T07:54:16.075Z,7.00
2019-06-10T07:56:50.443Z,4.30
2019-06-10T07:59:16.358Z,11.13
2019-06-10T08:01:51.422Z,6.17
2019-06-10T08:04:16.877Z,6.77
2019-06-10T08:06:49.633Z,8.70
2019-06-10T08:09:17.176Z,5.63
2019-06-10T08:11:48.275Z,7.57
2019-06-10T08:14:17.453Z,8.10
2019-06-10T08:16:48.287Z,4.70
2019-06-10T08:19:31.614Z,14.17
2019-06-10T08:21:49.486Z,6.23
2019-06-10T08:24:19.064Z,8.27
2019-06-10T08:26:48.348Z,10.57
2019-06-10T08:29:17.656Z,8.90
2019-06-10T08:31:49.481Z,8.07
2019-06-10T08:34:17.980Z,6.50
2019-06-10T08:36:50.552Z,9.57
2019-06-10T08:39:18.905Z,7.03
2019-06-10T08:41:49.251Z,5.93
2019-06-10T08:44:18.574Z,14.90
2019-06-10T08:46:48.662Z,6.93
2019-06-10T08:49:18.006Z,5.97
2019-06-10T08:51:50.113Z,7.63
2019-06-10T08:54:18.976Z,6.33
2019-06-10T08:56:50.698Z,8.83
2019-06-10T08:59:19.189Z,6.20
2019-06-10T09:01:55.395Z,11.07
2019-06-10T09:04:19.694Z,5.10
2019-06-10T09:06:50.839Z,7.33
2019-06-10T09:09:22.509Z,8.00
2019-06-10T09:11:54.712Z,6.37
2019-06-10T09:14:23.502Z,4.73
2019-06-10T09:16:54.313Z,9.37
2019-06-10T09:19:23.780Z,6.20
2019-06-10T09:21:56.160Z,8.10
2019-06-10T09:24:24.544Z,5.87
2019-06-10T09:26:54.972Z,5.23
2019-06-10T09:29:24.446Z,6.90
2019-06-10T09:31:55.940Z,7.83
2019-06-10T09:34:24.934Z,6.93
2019-06-10T09:36:56.868Z,7.87
2019-06-10T09:39:25.426Z,7.97
2019-06-10T09:42:02.281Z,5.97
2019-06-10T09:44:25.751Z,8.13
2019-06-10T09:47:00.124Z,7.93
2019-06-10T09:49:28.251Z,6.70
2019-06-10T09:51:57.852Z,8.67
2019-06-10T09:54:27.318Z,5.37
2019-06-10T09:56:56.571Z,5.97
2019-06-10T09:59:25.846Z,6.57
2019-06-10T10:02:00.001Z,5.53
2019-06-10T10:04:26.282Z,7.23
2019-06-10T10:06:57.413Z,7.07
2019-06-10T10:09:29.143Z,8.60
2019-06-10T10:11:58.342Z,6.90
2019-06-10T10:14:27.581Z,13.00
2019-06-10T10:17:00.118Z,9.07
2019-06-10T10:19:27.935Z,6.30
2019-06-10T10:21:58.589Z,7.77
2019-06-10T10:24:28.847Z,9.10
2019-06-10T10:27:01.781Z,12.70
2019-06-10T10:29:29.335Z,12.33
2019-06-10T10:31:58.760Z,9.40
2019-06-10T10:34:27.996Z,8.37
2019-06-10T10:36:57.506Z,16.50
2019-06-10T10:39:27.069Z,16.33
2019-06-10T10:41:57.228Z,9.03
2019-06-10T10:44:26.780Z,7.23
2019-06-10T10:46:56.091Z,6.80
2019-06-10T10:49:25.336Z,15.40
2019-06-10T10:51:54.715Z,9.90
2019-06-10T10:54:32.857Z,9.60
2019-06-10T10:56:58.869Z,10.20
2019-06-10T10:59:26.141Z,10.93
2019-06-10T11:01:55.405Z,9.57
2019-06-10T11:04:24.617Z,10.40
2019-06-10T11:06:57.213Z,10.03
2019-06-10T11:09:26.290Z,12.87
2019-06-10T11:11:59.492Z,11.33
2019-06-10T11:14:29.527Z,16.37
2019-06-10T11:16:59.126Z,11.33
2019-06-10T11:19:28.531Z,12.17
2019-06-10T11:21:57.962Z,8.70
2019-06-10T11:24:36.777Z,8.30
2019-06-10T11:26:58.555Z,8.50
2019-06-10T11:29:27.905Z,8.67
2019-06-10T11:31:58.649Z,8.23
2019-06-10T11:34:29.000Z,9.40
2019-06-10T11:36:58.548Z,6.47
2019-06-10T11:39:27.767Z,7.73
2019-06-10T11:41:57.766Z,11.37
2019-06-10T11:44:27.326Z,5.33
2019-06-10T11:46:58.126Z,5.53
2019-06-10T11:49:27.751Z,4.10
2019-06-10T11:51:59.531Z,8.00
2019-06-10T11:54:28.083Z,5.20
2019-06-10T11:56:58.719Z,5.57
2019-06-10T11:59:28.506Z,7.33
2019-06-10T12:02:01.711Z,5.47
2019-06-10T12:04:28.682Z,6.97
2019-06-10T12:06:59.047Z,8.03
2019-06-10T12:09:28.467Z,5.93
2019-06-10T12:12:01.404Z,8.37
2019-06-10T12:14:29.531Z,5.60
2019-06-10T12:17:21.900Z,6.63
2019-06-10T12:19:29.732Z,6.63
2019-06-10T12:22:04.578Z,5.03
2019-06-10T12:24:33.139Z,9.93
2019-06-10T12:27:04.943Z,5.53
2019-06-10T12:29:33.149Z,7.90
2019-06-10T12:32:06.940Z,9.37
2019-06-10T12:34:33.551Z,9.40
2019-06-10T12:37:10.738Z,11.57
2019-06-10T12:39:35.080Z,9.20
2019-06-10T12:42:06.439Z,6.20
2019-06-10T12:44:35.914Z,4.83
2019-06-10T12:47:07.894Z,8.17
2019-06-10T12:49:36.210Z,6.00
2019-06-10T12:52:07.576Z,7.90
2019-06-10T12:54:36.537Z,8.23
2019-06-10T12:57:06.945Z,9.23
2019-06-10T12:59:36.776Z,6.83
2019-06-10T13:02:16.732Z,9.63
2019-06-10T13:04:37.193Z,10.37
2019-06-10T13:07:08.548Z,9.03
2019-06-10T13:09:39.219Z,6.30
2019-06-10T13:12:08.492Z,8.20
2019-06-10T13:14:38.141Z,7.10
2019-06-10T13:17:08.437Z,5.57
2019-06-10T13:19:37.827Z,9.63
2019-06-10T13:22:08.785Z,8.30
2019-06-10T13:24:38.356Z,4.67
2019-06-10T13:27:08.363Z,4.80
2019-06-10T13:29:37.887Z,5.13
2019-06-10T13:32:08.098Z,10.73
2019-06-10T13:34:37.455Z,5.13
2019-06-10T13:37:08.560Z,7.27
2019-06-10T13:39:37.918Z,7.40
2019-06-10T13:42:09.946Z,5.80
2019-06-10T13:44:38.350Z,7.10
2019-06-10T13:47:10.581Z,7.43
2019-06-10T13:49:38.621Z,5.80
2019-06-10T13:52:13.166Z,2.67
2019-06-10T13:54:39.272Z,6.93
2019-06-10T13:57:10.654Z,6.40
2019-06-10T13:59:39.761Z,7.67
2019-06-10T14:02:11.800Z,6.70
2019-06-10T14:04:42.223Z,4.73
2019-06-10T14:07:16.933Z,9.40
2019-06-10T14:09:42.103Z,5.33
2019-06-10T14:12:16.648Z,5.80
2019-06-10T14:14:43.572Z,6.77
2019-06-10T14:17:19.040Z,5.83
2019-06-10T14:19:43.800Z,7.40
2019-06-10T14:22:16.061Z,4.43
2019-06-10T14:24:44.184Z,4.13
2019-06-10T14:27:17.180Z,3.47
2019-06-10T14:29:44.714Z,7.50
2019-06-10T14:32:15.647Z,4.90
2019-06-10T14:34:45.261Z,3.07
2019-06-10T14:37:15.657Z,3.70
2019-06-10T14:39:45.459Z,4.23
2019-06-10T14:42:16.230Z,4.37
2019-06-10T14:44:45.573Z,4.27
2019-06-10T14:47:16.684Z,4.00
2019-06-10T14:49:46.167Z,3.40
2019-06-10T14:52:16.896Z,6.03
2019-06-10T14:54:46.314Z,6.07
2019-06-10T14:57:16.846Z,5.73
2019-06-10T14:59:46.140Z,5.10
2019-06-10T15:02:16.107Z,6.27
2019-06-10T15:04:46.558Z,7.07
2019-06-10T15:07:15.875Z,5.27
2019-06-10T15:09:45.121Z,6.20
2019-06-10T15:12:16.230Z,6.33
2019-06-10T15:14:46.027Z,3.10
2019-06-10T15:17:16.717Z,7.70
2019-06-10T15:19:46.216Z,4.70
2019-06-10T15:22:16.985Z,4.20
2019-06-10T15:24:46.361Z,4.33
2019-06-10T15:27:23.341Z,8.50
2019-06-10T15:29:46.647Z,3.43
2019-06-10T15:32:27.736Z,7.03
2019-06-10T15:34:46.909Z,4.37
2019-06-10T15:37:18.745Z,8.43
2019-06-10T15:39:47.385Z,5.23
2019-06-10T15:42:17.823Z,6.70
2019-06-10T15:44:52.309Z,7.37
2019-06-10T15:47:21.015Z,7.23
2019-06-10T15:49:49.374Z,5.47
2019-06-10T15:52:20.100Z,5.47
2019-06-10T15:54:49.671Z,3.80
2019-06-10T15:57:30.650Z,8.93
2019-06-10T15:59:52.093Z,4.27
2019-06-10T16:02:25.334Z,2.83
2019-06-10T16:04:52.809Z,4.33
2019-06-10T16:07:25.301Z,6.50
2019-06-10T16:09:53.465Z,7.23
2019-06-10T16:12:26.478Z,4.97
2019-06-10T16:14:53.854Z,6.67
2019-06-10T16:17:23.415Z,4.13
2019-06-10T16:19:53.160Z,8.77
2019-06-10T16:22:24.919Z,6.13
2019-06-10T16:24:53.631Z,7.07
2019-06-10T16:27:40.342Z,7.20
2019-06-10T16:29:53.861Z,6.90
2019-06-10T16:32:26.021Z,5.57
2019-06-10T16:34:54.351Z,6.57
2019-06-10T16:37:25.373Z,9.40
2019-06-10T16:39:54.919Z,4.97
2019-06-10T16:42:26.226Z,4.80
2019-06-10T16:44:55.111Z,5.07
2019-06-10T16:47:27.083Z,7.57
2019-06-10T16:49:55.672Z,7.77
2019-06-10T16:52:26.075Z,5.47
2019-06-10T16:54:56.193Z,3.80
2019-06-10T16:57:25.967Z,9.20
2019-06-10T16:59:56.441Z,5.47
2019-06-10T17:02:26.871Z,6.30
2019-06-10T17:04:58.403Z,6.70
2019-06-10T17:07:27.148Z,4.47
2019-06-10T17:09:56.593Z,6.33
2019-06-10T17:12:27.522Z,8.53
2019-06-10T17:14:57.070Z,5.53
2019-06-10T17:17:28.267Z,6.20
2019-06-10T17:19:57.552Z,5.97
2019-06-10T17:22:28.609Z,6.03
2019-06-10T17:24:58.039Z,5.80
2019-06-10T17:27:27.943Z,7.03
2019-06-10T17:29:57.328Z,8.00
2019-06-10T17:32:27.213Z,5.33
2019-06-10T17:34:57.638Z,7.10
2019-06-10T17:37:26.962Z,4.27
2019-06-10T17:39:56.370Z,6.73
2019-06-10T17:42:30.684Z,8.17
2019-06-10T17:44:56.603Z,5.37
2019-06-10T17:47:27.746Z,6.60
2019-06-10T17:49:57.071Z,6.97
2019-06-10T17:52:26.326Z,5.53
2019-06-10T17:54:55.671Z,6.53
2019-06-10T17:57:26.561Z,5.93
2019-06-10T17:59:56.209Z,5.83
2019-06-10T18:02:26.981Z,6.37
2019-06-10T18:04:56.551Z,6.20
2019-06-10T18:07:25.997Z,3.63
2019-06-10T18:09:55.263Z,4.63
2019-06-10T18:12:25.562Z,7.03
2019-06-10T18:14:55.012Z,6.47
2019-06-10T18:17:25.916Z,5.97
2019-06-10T18:19:55.671Z,5.30
2019-06-10T18:22:26.380Z,6.27
2019-06-10T18:24:55.791Z,5.93
2019-06-10T18:27:25.250Z,4.30
2019-06-10T18:29:54.628Z,7.83
2019-06-10T18:32:23.904Z,5.40
2019-06-10T18:34:53.167Z,6.47
2019-06-10T18:37:22.852Z,6.30
2019-06-10T18:39:52.269Z,6.97
2019-06-10T18:42:23.541Z,5.23
2019-06-10T18:44:52.702Z,5.77
2019-06-10T18:47:22.397Z,4.23
2019-06-10T18:49:52.734Z,6.43
2019-06-10T18:52:23.316Z,4.67
2019-06-10T18:54:52.956Z,5.37
2019-06-10T18:57:22.576Z,7.07
2019-06-10T18:59:52.321Z,6.33
2019-06-10T19:02:22.676Z,5.90
2019-06-10T19:04:54.601Z,5.13
2019-06-10T19:07:23.216Z,7.63
2019-06-10T19:09:52.983Z,5.07
2019-06-10T19:12:22.608Z,6.60
2019-06-10T19:14:52.342Z,5.67
2019-06-10T19:17:23.168Z,8.10
2019-06-10T19:19:53.401Z,5.83
2019-06-10T19:22:22.687Z,4.80
2019-06-10T19:24:52.994Z,4.80
2019-06-10T19:27:23.830Z,5.20
2019-06-10T19:29:54.919Z,5.37
2019-06-10T19:32:24.469Z,5.30
2019-06-10T19:34:53.946Z,5.83
2019-06-10T19:37:23.191Z,4.03
2019-06-10T19:39:54.107Z,8.93
2019-06-10T19:42:23.733Z,7.93
2019-06-10T19:44:52.976Z,6.07
2019-06-10T19:47:23.559Z,5.90
2019-06-10T19:49:53.365Z,7.20
2019-06-10T19:52:23.411Z,6.53
2019-06-10T19:54:53.179Z,5.07
2019-06-10T19:57:22.639Z,6.37
2019-06-10T20:00:07.220Z,5.40
2019-06-10T20:02:22.905Z,5.87
2019-06-10T20:04:52.838Z,9.70
2019-06-10T20:07:22.958Z,6.40
2019-06-10T20:09:52.388Z,7.37
2019-06-10T20:12:22.913Z,7.40
2019-06-10T20:14:56.836Z,12.77
2019-06-10T20:17:25.023Z,5.43
2019-06-10T20:19:54.517Z,5.60
2019-06-10T20:22:23.813Z,6.03
2019-06-10T20:24:53.321Z,6.10
2019-06-10T20:30:07.611Z,5.17
2019-06-10T20:32:25.053Z,4.77
2019-06-10T20:34:54.393Z,5.73
2019-06-10T20:37:23.789Z,7.10
2019-06-10T20:39:53.878Z,4.07
2019-06-10T20:42:23.301Z,7.47
2019-06-10T20:44:52.841Z,8.73
2019-06-10T20:47:23.103Z,6.60
2019-06-10T20:49:55.962Z,5.03
2019-06-10T20:52:23.715Z,3.87
2019-06-10T20:54:53.319Z,4.67
2019-06-10T20:57:22.741Z,4.77
2019-06-10T20:59:52.160Z,4.77
2019-06-10T21:02:22.448Z,8.67
2019-06-10T21:04:53.199Z,4.83
2019-06-10T21:07:24.392Z,4.90
2019-06-10T21:09:55.302Z,6.53
2019-06-10T21:12:24.515Z,6.87
2019-06-10T21:14:53.789Z,5.37
2019-06-10T21:17:23.346Z,6.23
2019-06-10T21:19:53.701Z,5.33
2019-06-10T21:22:23.257Z,5.87
2019-06-10T21:24:53.543Z,3.57
2019-06-10T21:27:23.804Z,4.43
2019-06-10T21:29:54.683Z,3.97
2019-06-10T21:32:24.232Z,4.97
2019-06-10T21:34:53.906Z,5.17
2019-06-10T21:37:23.325Z,7.60
2019-06-10T21:39:55.577Z,4.37
2019-06-10T21:42:23.632Z,7.63
2019-06-10T21:44:53.140Z,3.93
2019-06-10T21:47:23.357Z,4.37
2019-06-10T21:49:54.519Z,6.37
2019-06-10T21:52:23.985Z,4.43
2019-06-10T21:54:53.264Z,5.37
2019-06-10T21:57:22.565Z,4.07
2019-06-10T21:59:54.069Z,6.17
2019-06-10T22:02:23.236Z,6.07
2019-06-10T22:04:54.157Z,9.63
2019-06-10T22:07:23.520Z,12.10
2019-06-10T22:09:54.716Z,7.27
2019-06-10T22:12:23.887Z,6.17
2019-06-10T22:14:54.385Z,8.47
2019-06-10T22:17:23.950Z,9.13
2019-06-10T22:19:55.097Z,7.37
2019-06-10T22:22:25.202Z,7.03
2019-06-10T22:24:55.202Z,5.67
2019-06-10T22:27:25.453Z,10.63
2019-06-10T22:29:57.003Z,7.17
2019-06-10T22:32:25.907Z,9.97
2019-06-10T22:34:55.860Z,9.70
2019-06-10T22:37:26.375Z,8.77
2019-06-10T22:39:56.625Z,8.30
2019-06-10T22:42:26.653Z,5.67
2019-06-10T22:44:57.978Z,8.17
2019-06-10T22:47:27.061Z,7.47
2019-06-10T22:49:58.037Z,8.37
2019-06-10T22:52:27.632Z,6.50
2019-06-10T22:54:58.555Z,7.33
2019-06-10T22:57:28.081Z,6.23
2019-06-10T22:59:58.155Z,5.77
2019-06-10T23:02:28.621Z,8.10
2019-06-10T23:04:59.920Z,5.97
2019-06-10T23:07:29.134Z,14.33
2019-06-10T23:09:59.088Z,8.07
2019-06-10T23:12:28.407Z,10.10
2019-06-10T23:14:59.216Z,6.13
2019-06-10T23:17:28.716Z,11.93
2019-06-10T23:19:58.471Z,9.43
2019-06-10T23:22:29.267Z,8.00
2019-06-10T23:24:59.837Z,6.57
2019-06-10T23:27:29.764Z,7.87
2019-06-10T23:30:00.865Z,8.47
2019-06-10T23:32:32.685Z,11.30
2019-06-10T23:35:01.544Z,10.20
2019-06-10T23:37:32.297Z,7.33
2019-06-10T23:40:03.950Z,8.83
2019-06-10T23:42:32.791Z,7.67
2019-06-10T23:45:04.853Z,11.23
2019-06-10T23:47:33.199Z,8.40
2019-06-10T23:50:04.301Z,10.23
2019-06-10T23:52:33.598Z,9.73
2019-06-10T23:55:04.542Z,8.77
2019-06-10T23:57:33.945Z,7.80
